Time;durP1;ratioP1;P1;durP2;ratioP2;P2;SDS_P1;SDS_P2;PMS_P1;PMS_P2;Temp;Humidity;BMP_temperature;BMP_pressure;BME280_temperature;BME280_humidity;BME280_pressure;Samples;Min_cycle;Max_cycle;Signal;HPM_P1;HPM_P2
2024/02/24 00:00:03;;;;;;;;;;;;;;;1.79;100.00;94736.09;5107692;28;20124;-67
2024/02/24 00:02:29;;;;;;;;;;;;;;;1.80;100.00;94726.53;5107589;28;19940;-67
2024/02/24 00:04:57;;;;;;;;;;;;;;;1.80;100.00;94731.72;5106673;28;19941;-78
2024/02/24 00:07:23;;;;;;;;;;;;;;;1.82;100.00;94733.09;5107589;28;19935;-72
2024/02/24 00:09:48;;;;;;;;;;;;;;;1.85;100.00;94738.84;5106893;28;19961;-73
2024/02/24 00:12:14;;;;;;;;;;;;;;;1.86;100.00;94727.53;5107360;28;20218;-74
2024/02/24 00:14:40;;;;;;;;;;;;;;;1.88;100.00;94726.31;5108168;28;19936;-74
2024/02/24 00:17:06;;;;;;;;;;;;;;;1.91;100.00;94723.34;5107366;28;20255;-73
2024/02/24 00:19:32;;;;;;;;;;;;;;;1.89;100.00;94725.34;5107368;28;19935;-73
2024/02/24 00:21:58;;;;;;;;;;;;;;;1.89;100.00;94721.94;5107268;28;19938;-73
2024/02/24 00:24:23;;;;;;;;;;;;;;;1.89;100.00;94724.53;5107210;28;19937;-72
2024/02/24 00:26:50;;;;;;;;;;;;;;;1.88;100.00;94717.78;5107636;28;20102;-72
2024/02/24 00:29:15;;;;;;;;;;;;;;;1.86;100.00;94717.97;5107128;28;20120;-73
2024/02/24 00:31:41;;;;;;;;;;;;;;;1.87;100.00;94719.56;5107015;28;19971;-73
2024/02/24 00:34:07;;;;;;;;;;;;;;;1.86;100.00;94715.41;5106942;28;19990;-72
2024/02/24 00:36:34;;;;;;;;;;;;;;;1.85;100.00;94716.41;5107000;28;19944;-72
2024/02/24 00:38:59;;;;;;;;;;;;;;;1.85;100.00;94716.41;5106862;28;20248;-72
2024/02/24 00:41:25;;;;;;;;;;;;;;;1.83;100.00;94716.59;5106861;28;19934;-72
2024/02/24 00:43:52;;;;;;;;;;;;;;;1.81;100.00;94712.66;5106862;28;20034;-67
2024/02/24 00:46:18;;;;;;;;;;;;;;;1.81;100.00;94716.00;5107310;28;19937;-73
2024/02/24 00:48:44;;;;;;;;;;;;;;;1.79;100.00;94712.84;5106698;28;19937;-73
2024/02/24 00:51:10;;;;;;;;;;;;;;;1.79;100.00;94724.97;5107492;28;19930;-73
2024/02/24 00:53:36;;;;;;;;;;;;;;;1.78;100.00;94726.75;5107079;28;19954;-74
2024/02/24 00:56:02;;;;;;;;;;;;;;;1.78;100.00;94736.28;5106568;28;19938;-74
2024/02/24 00:58:27;;;;;;;;;;;;;;;1.77;100.00;94738.09;5106385;28;19963;-73
2024/02/24 01:00:53;;;;;;;;;;;;;;;1.77;100.00;94745.06;5105773;28;19935;-73
2024/02/24 01:03:19;;;;;;;;;;;;;;;1.78;100.00;94749.22;5106180;28;20272;-75
2024/02/24 01:05:45;;;;;;;;;;;;;;;1.76;100.00;94748.63;5106418;28;20264;-76
2024/02/24 01:08:11;;;;;;;;;;;;;;;1.78;100.00;94764.72;5106312;28;19948;-76
2024/02/24 01:10:37;;;;;;;;;;;;;;;1.76;100.00;94762.34;5105420;28;19948;-76
2024/02/24 01:13:03;;;;;;;;;;;;;;;1.77;100.00;94769.09;5106151;28;19956;-76
2024/02/24 01:15:29;;;;;;;;;;;;;;;1.78;100.00;94769.88;5106156;28;19927;-75
2024/02/24 01:17:55;;;;;;;;;;;;;;;1.79;100.00;94767.09;5106139;28;20276;-77
2024/02/24 01:20:22;;;;;;;;;;;;;;;1.80;100.00;94775.66;5106202;28;19934;-72
2024/02/24 01:22:53;;;;;;;;;;;;;;;1.81;100.00;94782.41;5106822;28;20104;-74
2024/02/24 01:25:19;;;;;;;;;;;;;;;1.82;100.00;94779.63;5106062;28;19936;-75
2024/02/24 01:27:45;;;;;;;;;;;;;;;1.84;100.00;94779.41;5105968;28;19937;-75
2024/02/24 01:30:11;;;;;;;;;;;;;;;1.88;100.00;94782.41;5105946;28;19956;-74
2024/02/24 01:32:37;;;;;;;;;;;;;;;1.89;100.00;94789.13;5105781;28;20005;-79
2024/02/24 01:35:03;;;;;;;;;;;;;;;1.91;100.00;94789.72;5106161;28;19937;-77
2024/02/24 01:37:29;;;;;;;;;;;;;;;1.93;100.00;94798.88;5105779;28;19943;-67
2024/02/24 01:39:55;;;;;;;;;;;;;;;1.96;100.00;94784.75;5105750;28;19979;-78
2024/02/24 01:42:21;;;;;;;;;;;;;;;1.95;100.00;94778.78;5105708;28;19944;-74
2024/02/24 01:44:47;;;;;;;;;;;;;;;1.96;100.00;94782.97;5105638;28;19945;-75
2024/02/24 01:47:12;;;;;;;;;;;;;;;1.97;100.00;94781.16;5105594;28;19942;-74
2024/02/24 01:49:38;;;;;;;;;;;;;;;2.00;100.00;94776.38;5105510;28;19936;-75
2024/02/24 01:52:05;;;;;;;;;;;;;;;2.02;100.00;94783.94;5105550;28;19933;-75
2024/02/24 01:54:31;;;;;;;;;;;;;;;2.04;100.00;94784.53;5105644;28;19972;-75
2024/02/24 01:56:57;;;;;;;;;;;;;;;2.06;100.00;94779.94;5105927;28;19934;-67
2024/02/24 01:59:23;;;;;;;;;;;;;;;2.08;100.00;94771.97;5105374;28;20254;-75
2024/02/24 02:01:50;;;;;;;;;;;;;;;2.09;100.00;94782.09;5105798;28;19948;-74
2024/02/24 02:04:16;;;;;;;;;;;;;;;2.11;100.00;94785.28;5105278;28;20257;-75
2024/02/24 02:06:42;;;;;;;;;;;;;;;2.12;100.00;94784.28;5106011;28;19933;-76
2024/02/24 02:09:07;;;;;;;;;;;;;;;2.15;100.00;94793.44;5105125;28;19954;-76
2024/02/24 02:11:33;;;;;;;;;;;;;;;2.15;100.00;94785.66;5105077;28;19980;-76
2024/02/24 02:13:59;;;;;;;;;;;;;;;2.14;100.00;94784.88;5104776;28;19966;-67
2024/02/24 02:16:25;;;;;;;;;;;;;;;2.14;100.00;94792.63;5105883;28;19935;-68
2024/02/24 02:18:51;;;;;;;;;;;;;;;2.13;100.00;94785.06;5104961;28;19936;-67
2024/02/24 02:21:17;;;;;;;;;;;;;;;2.12;100.00;94775.72;5104975;28;19966;-69
2024/02/24 02:23:43;;;;;;;;;;;;;;;2.15;100.00;94781.28;5104915;28;19946;-68
2024/02/24 02:26:09;;;;;;;;;;;;;;;2.15;100.00;94791.63;5104875;28;19966;-68
2024/02/24 02:28:35;;;;;;;;;;;;;;;2.17;100.00;94791.44;5105056;28;19932;-67
2024/02/24 02:31:00;;;;;;;;;;;;;;;2.18;100.00;94798.16;5103796;28;19985;-67
2024/02/24 02:33:26;;;;;;;;;;;;;;;2.16;100.00;94795.81;5104697;28;19949;-73
2024/02/24 02:35:52;;;;;;;;;;;;;;;2.16;100.00;94797.59;5104698;28;19931;-79
2024/02/24 02:38:18;;;;;;;;;;;;;;;2.13;100.00;94801.38;5104676;28;19940;-78
2024/02/24 02:40:44;;;;;;;;;;;;;;;2.12;100.00;94804.16;5104538;28;19947;-75
2024/02/24 02:43:10;;;;;;;;;;;;;;;2.12;100.00;94788.66;5104565;28;19934;-76
2024/02/24 02:45:36;;;;;;;;;;;;;;;2.09;100.00;94787.28;5104491;28;19980;-76
2024/02/24 02:48:02;;;;;;;;;;;;;;;2.07;100.00;94775.56;5104411;28;19928;-77
2024/02/24 02:50:28;;;;;;;;;;;;;;;2.02;100.00;94769.22;5104499;28;19944;-72
2024/02/24 02:52:53;;;;;;;;;;;;;;;2.01;100.00;94770.19;5087063;28;19933;-76
2024/02/24 02:55:20;;;;;;;;;;;;;;;1.97;100.00;94768.22;5104910;28;19970;-76
2024/02/24 02:57:47;;;;;;;;;;;;;;;1.95;100.00;94772.81;5104197;28;20291;-77
2024/02/24 03:00:12;;;;;;;;;;;;;;;1.96;100.00;94775.19;5104844;28;19946;-77
2024/02/24 03:02:38;;;;;;;;;;;;;;;2.02;100.00;94776.19;5104834;28;19931;-77
2024/02/24 03:05:04;;;;;;;;;;;;;;;2.05;100.00;94769.81;5104535;28;19992;-77
2024/02/24 03:07:30;;;;;;;;;;;;;;;2.07;100.00;94762.63;5104222;28;19931;-77
2024/02/24 03:09:56;;;;;;;;;;;;;;;2.09;100.00;94755.47;5104115;28;20018;-77
2024/02/24 03:12:22;;;;;;;;;;;;;;;2.09;100.00;94756.25;5104204;28;19938;-73
2024/02/24 03:14:48;;;;;;;;;;;;;;;2.11;100.00;94751.66;5104027;28;19984;-73
2024/02/24 03:17:14;;;;;;;;;;;;;;;2.13;100.00;94746.28;5104118;28;19928;-72
2024/02/24 03:19:40;;;;;;;;;;;;;;;2.15;100.00;94750.25;5104868;28;19932;-75
2024/02/24 03:22:06;;;;;;;;;;;;;;;2.17;100.00;94747.47;5104098;28;19938;-74
2024/02/24 03:24:32;;;;;;;;;;;;;;;2.16;100.00;94749.28;5106281;28;19928;-74
2024/02/24 03:26:58;;;;;;;;;;;;;;;2.15;100.00;94755.44;5110807;28;20132;-73
2024/02/24 03:29:24;;;;;;;;;;;;;;;2.15;100.00;94765.78;5110125;28;19956;-68
2024/02/24 03:31:49;;;;;;;;;;;;;;;2.17;100.00;94775.91;5110743;28;19929;-79
2024/02/24 03:34:15;;;;;;;;;;;;;;;2.14;100.00;94771.94;5110649;28;19999;-77
2024/02/24 03:36:42;;;;;;;;;;;;;;;2.13;100.00;94770.34;5110686;28;20130;-77
2024/02/24 03:39:08;;;;;;;;;;;;;;;2.12;100.00;94779.13;5110718;28;19933;-77
2024/02/24 03:41:34;;;;;;;;;;;;;;;2.10;100.00;94777.72;5110659;28;19935;-78
2024/02/24 03:44:00;;;;;;;;;;;;;;;2.09;100.00;94773.56;5110719;28;19935;-77
2024/02/24 03:46:26;;;;;;;;;;;;;;;2.10;100.00;94785.47;5111124;28;19943;-73
2024/02/24 03:48:52;;;;;;;;;;;;;;;2.10;100.00;94785.47;5110556;28;19934;-73
2024/02/24 03:51:17;;;;;;;;;;;;;;;2.09;100.00;94782.09;5110589;28;20264;-75
2024/02/24 03:53:43;;;;;;;;;;;;;;;2.11;100.00;94787.06;5111028;28;19980;-77
2024/02/24 03:56:09;;;;;;;;;;;;;;;2.11;100.00;94794.84;5110524;28;20118;-77
2024/02/24 03:58:35;;;;;;;;;;;;;;;2.09;100.00;94795.03;5110350;28;19971;-74
2024/02/24 04:01:02;;;;;;;;;;;;;;;2.04;100.00;94802.63;5092532;28;19941;-73
2024/02/24 04:03:28;;;;;;;;;;;;;;;1.99;100.00;94800.63;5111239;28;19940;-74
2024/02/24 04:05:54;;;;;;;;;;;;;;;1.95;100.00;94798.66;5110448;28;20216;-72
2024/02/24 04:08:20;;;;;;;;;;;;;;;1.95;100.00;94804.66;5110349;28;20263;-74
2024/02/24 04:10:46;;;;;;;;;;;;;;;1.98;100.00;94811.97;5110944;28;19938;-75
2024/02/24 04:13:12;;;;;;;;;;;;;;;2.00;100.00;94811.78;5110889;28;20240;-74
2024/02/24 04:15:38;;;;;;;;;;;;;;;2.02;100.00;94807.19;5109666;28;19959;-78
2024/02/24 04:18:04;;;;;;;;;;;;;;;2.05;100.00;94803.41;5110614;28;20211;-77
2024/02/24 04:20:30;;;;;;;;;;;;;;;2.06;100.00;94808.38;5110561;28;19931;-74
2024/02/24 04:22:56;;;;;;;;;;;;;;;2.07;100.00;94804.00;5110276;28;19944;-72
2024/02/24 04:25:22;;;;;;;;;;;;;;;2.08;100.00;94814.16;5110290;28;20129;-77
2024/02/24 04:27:48;;;;;;;;;;;;;;;2.06;100.00;94818.72;5110757;28;20014;-78
2024/02/24 04:30:13;;;;;;;;;;;;;;;2.05;100.00;94818.91;5110250;28;19940;-77
2024/02/24 04:32:40;;;;;;;;;;;;;;;2.02;100.00;94814.97;5110231;28;19939;-77
2024/02/24 04:35:07;;;;;;;;;;;;;;;1.99;100.00;94810.19;5110159;28;19950;-82
2024/02/24 04:37:32;;;;;;;;;;;;;;;1.98;100.00;94798.25;5107869;28;19930;-86
2024/02/24 04:39:58;;;;;;;;;;;;;;;1.99;100.00;94800.63;5106992;28;19936;-86
2024/02/24 04:42:24;;;;;;;;;;;;;;;2.01;100.00;94805.59;5107500;28;19968;-76
2024/02/24 04:44:50;;;;;;;;;;;;;;;2.02;100.00;94796.84;5107090;28;20228;-73
2024/02/24 04:47:16;;;;;;;;;;;;;;;2.02;100.00;94802.81;5106854;28;19935;-74
2024/02/24 04:49:42;;;;;;;;;;;;;;;2.03;100.00;94809.56;5089442;28;19945;-74
2024/02/24 04:52:08;;;;;;;;;;;;;;;2.04;100.00;94812.97;5106777;28;19939;-74
2024/02/24 04:54:34;;;;;;;;;;;;;;;2.06;100.00;94823.91;5107443;28;19948;-73
2024/02/24 04:56:59;;;;;;;;;;;;;;;2.05;100.00;94819.72;5107164;28;19969;-73
2024/02/24 04:59:25;;;;;;;;;;;;;;;2.05;100.00;94819.72;5106445;28;19959;-76
2024/02/24 05:01:51;;;;;;;;;;;;;;;2.07;100.00;94824.69;5106616;28;19938;-67
2024/02/24 05:04:17;;;;;;;;;;;;;;;2.05;100.00;94829.25;5107084;28;19938;-86
2024/02/24 05:06:43;;;;;;;;;;;;;;;2.00;100.00;94832.47;5106477;28;20124;-81
2024/02/24 05:09:11;;;;;;;;;;;;;;;1.96;100.00;94850.16;5106313;28;19950;-80
2024/02/24 05:11:37;;;;;;;;;;;;;;;1.96;100.00;94854.56;5107052;28;20217;-79
2024/02/24 05:14:04;;;;;;;;;;;;;;;1.96;100.00;94859.72;5106488;28;20248;-79
2024/02/24 05:16:32;;;;;;;;;;;;;;;1.91;100.00;94859.50;5106199;28;19943;-79
2024/02/24 05:18:58;;;;;;;;;;;;;;;1.86;100.00;94862.72;5106656;28;19940;-69
2024/02/24 05:21:24;;;;;;;;;;;;;;;1.85;100.00;94863.72;5106144;28;20005;-73
2024/02/24 05:23:50;;;;;;;;;;;;;;;1.83;100.00;94863.13;5106611;28;19957;-73
2024/02/24 05:26:25;;;;;;;;;;;;;;;1.81;100.00;94862.53;5106064;28;20182;-72
2024/02/24 05:28:51;;;;;;;;;;;;;;;1.82;100.00;94864.91;5106670;28;19939;-72
2024/02/24 05:31:17;;;;;;;;;;;;;;;1.84;100.00;94869.88;5105970;28;19936;-71
2024/02/24 05:33:43;;;;;;;;;;;;;;;1.87;100.00;94866.09;5106068;28;19949;-73
2024/02/24 05:36:09;;;;;;;;;;;;;;;1.86;100.00;94864.50;5105897;28;19969;-76
2024/02/24 05:38:35;;;;;;;;;;;;;;;1.85;100.00;94873.25;5088471;28;19933;-74
2024/02/24 05:41:02;;;;;;;;;;;;;;;1.86;100.00;94883.38;5105795;28;19999;-77
2024/02/24 05:43:28;;;;;;;;;;;;;;;1.88;100.00;94873.66;5105709;28;19938;-75
2024/02/24 05:45:54;;;;;;;;;;;;;;;1.89;100.00;94880.41;5105836;28;19930;-75
2024/02/24 05:48:22;;;;;;;;;;;;;;;1.89;100.00;94882.19;5105882;28;19945;-73
2024/02/24 05:50:51;;;;;;;;;;;;;;;1.88;100.00;94885.78;5105531;28;19931;-73
2024/02/24 05:53:17;;;;;;;;;;;;;;;1.86;100.00;94892.94;5105488;28;19928;-73
2024/02/24 05:55:47;;;;;;;;;;;;;;;1.83;100.00;94894.16;5105452;28;19947;-79
2024/02/24 05:58:13;;;;;;;;;;;;;;;1.81;100.00;94885.78;5105203;28;19962;-65
2024/02/24 06:00:39;;;;;;;;;;;;;;;1.81;100.00;94903.88;5105357;28;19951;-65
2024/02/24 06:03:10;;;;;;;;;;;;;;;1.79;100.00;94911.84;5105804;28;19941;-65
2024/02/24 06:05:36;;;;;;;;;;;;;;;1.76;100.00;94917.38;5105803;28;19934;-65
2024/02/24 06:08:02;;;;;;;;;;;;;;;1.74;100.00;94929.75;5105069;28;19958;-65
2024/02/24 06:10:28;;;;;;;;;;;;;;;1.71;100.00;94931.91;5105626;28;19934;-65
2024/02/24 06:12:54;;;;;;;;;;;;;;;1.66;100.00;94918.78;5105112;28;19937;-70
2024/02/24 06:15:20;;;;;;;;;;;;;;;1.66;100.00;94929.13;5105105;28;19955;-66
2024/02/24 06:17:46;;;;;;;;;;;;;;;1.63;100.00;94930.31;5105346;28;19934;-76
2024/02/24 06:20:12;;;;;;;;;;;;;;;1.67;100.00;94933.31;5105618;28;19942;-76
2024/02/24 06:22:38;;;;;;;;;;;;;;;1.67;100.00;94931.50;5105019;28;20238;-76
2024/02/24 06:25:04;;;;;;;;;;;;;;;1.70;100.00;94938.06;5105472;28;19940;-76
2024/02/24 06:27:31;;;;;;;;;;;;;;;1.71;100.00;94942.25;5105681;28;20110;-75
2024/02/24 06:29:59;;;;;;;;;;;;;;;1.71;100.00;94934.50;5104789;28;19940;-75
2024/02/24 06:32:25;;;;;;;;;;;;;;;1.70;100.00;94938.88;5105058;28;19932;-72
2024/02/24 06:34:51;;;;;;;;;;;;;;;1.72;100.00;94946.41;5104770;28;19951;-72
2024/02/24 06:37:17;;;;;;;;;;;;;;;1.75;100.00;94953.78;5104779;28;19942;-72
2024/02/24 06:39:43;;;;;;;;;;;;;;;1.78;100.00;94948.22;5104690;28;19925;-73
2024/02/24 06:42:09;;;;;;;;;;;;;;;1.80;100.00;94949.59;5104728;28;20243;-72
2024/02/24 06:44:34;;;;;;;;;;;;;;;1.84;100.00;94957.75;5104605;28;19928;-72
2024/02/24 06:47:00;;;;;;;;;;;;;;;1.87;100.00;94953.97;5104780;28;19938;-72
2024/02/24 06:49:26;;;;;;;;;;;;;;;1.90;100.00;94961.34;5104493;28;19950;-72
2024/02/24 06:51:52;;;;;;;;;;;;;;;1.94;100.00;94959.94;5104092;28;19942;-72
2024/02/24 06:54:18;;;;;;;;;;;;;;;1.96;100.00;94973.47;5104682;28;19956;-73
2024/02/24 06:56:44;;;;;;;;;;;;;;;1.97;100.00;94972.44;5104458;28;19941;-73
2024/02/24 06:59:09;;;;;;;;;;;;;;;1.98;100.00;94980.00;5103402;28;19959;-73
2024/02/24 07:01:35;;;;;;;;;;;;;;;1.99;100.00;94991.16;5104391;28;19947;-73
2024/02/24 07:04:01;;;;;;;;;;;;;;;1.99;100.00;94998.91;5104521;28;19931;-73
2024/02/24 07:06:28;;;;;;;;;;;;;;;2.02;100.00;95001.09;5104274;28;19939;-73
2024/02/24 07:08:54;;;;;;;;;;;;;;;2.03;100.00;95021.56;5104095;28;19949;-72
2024/02/24 07:11:19;;;;;;;;;;;;;;;2.04;100.00;95022.38;5104224;28;20131;-66
2024/02/24 07:13:45;;;;;;;;;;;;;;;2.07;100.00;95045.25;5104808;28;19936;-66
2024/02/24 07:16:13;;;;;;;;;;;;;;;2.07;100.00;95045.25;5104056;28;20263;-65
2024/02/24 07:18:39;;;;;;;;;;;;;;;2.07;100.00;95050.41;5104887;28;19943;-65
2024/02/24 07:21:05;;;;;;;;;;;;;;;2.09;100.00;95047.63;5104151;28;20239;-65
2024/02/24 07:23:31;;;;;;;;;;;;;;;2.11;100.00;95028.34;5104095;28;20164;-65
2024/02/24 07:26:00;;;;;;;;;;;;;;;2.14;100.00;95033.13;5104009;28;19939;-65
2024/02/24 07:28:27;;;;;;;;;;;;;;;2.17;100.00;95044.84;5104355;28;20126;-72
2024/02/24 07:30:53;;;;;;;;;;;;;;;2.17;100.00;95050.81;5104572;28;19931;-75
2024/02/24 07:33:18;;;;;;;;;;;;;;;2.16;100.00;95058.75;5103966;28;20020;-75
2024/02/24 07:35:45;;;;;;;;;;;;;;;2.15;100.00;95054.59;5103851;28;20249;-76
2024/02/24 07:38:11;;;;;;;;;;;;;;;2.15;100.00;95062.34;5104486;28;19945;-75
2024/02/24 07:40:37;;;;;;;;;;;;;;;2.17;100.00;95057.78;5103911;28;20158;-75
2024/02/24 07:43:03;;;;;;;;;;;;;;;2.18;100.00;95070.53;5103916;28;19938;-75
2024/02/24 07:45:29;;;;;;;;;;;;;;;2.19;100.00;95074.69;5103921;28;20297;-70
2024/02/24 07:47:55;;;;;;;;;;;;;;;2.21;100.00;95083.03;5103883;28;19997;-72
2024/02/24 07:50:21;;;;;;;;;;;;;;;2.21;100.00;95085.63;5104720;28;19941;-66
2024/02/24 07:52:47;;;;;;;;;;;;;;;2.19;100.00;95084.25;5103835;28;19942;-67
2024/02/24 07:55:12;;;;;;;;;;;;;;;2.16;100.00;95094.97;5103782;28;19960;-67
2024/02/24 07:57:39;;;;;;;;;;;;;;;2.15;100.00;95108.91;5103612;28;19999;-67
2024/02/24 08:00:05;;;;;;;;;;;;;;;2.14;100.00;95117.63;5104283;28;19936;-67
2024/02/24 08:02:31;;;;;;;;;;;;;;;2.20;100.00;95122.03;5103731;28;20217;-66
2024/02/24 08:04:57;;;;;;;;;;;;;;;2.56;100.00;95121.66;5104202;28;20090;-66
2024/02/24 08:07:23;;;;;;;;;;;;;;;3.23;100.00;95122.31;5103783;28;19983;-65
2024/02/24 08:09:49;;;;;;;;;;;;;;;3.98;100.00;95106.19;5103508;28;20145;-66
2024/02/24 08:12:15;;;;;;;;;;;;;;;4.53;100.00;95095.22;5107800;28;20200;-65
2024/02/24 08:14:40;;;;;;;;;;;;;;;4.95;100.00;95079.03;5107397;28;19954;-65
2024/02/24 08:17:06;;;;;;;;;;;;;;;5.38;100.00;95083.38;5107393;28;19939;-65
2024/02/24 08:19:33;;;;;;;;;;;;;;;5.70;100.00;95089.94;5107324;28;19936;-66
2024/02/24 08:22:00;;;;;;;;;;;;;;;5.96;100.00;95049.00;5107280;28;19961;-71
2024/02/24 08:24:26;;;;;;;;;;;;;;;6.14;100.00;95040.34;5107281;28;19941;-78
2024/02/24 08:26:51;;;;;;;;;;;;;;;6.25;100.00;95038.75;5107226;28;19936;-73
2024/02/24 08:29:17;;;;;;;;;;;;;;;6.40;100.00;95053.94;5107703;28;19938;-74
2024/02/24 08:31:43;;;;;;;;;;;;;;;6.57;100.00;95048.84;5107202;28;20130;-73
2024/02/24 08:34:09;;;;;;;;;;;;;;;6.71;100.00;95022.34;5107800;28;19985;-73
2024/02/24 08:36:35;;;;;;;;;;;;;;;6.82;100.00;95018.13;5107108;28;19972;-73
2024/02/24 08:39:01;;;;;;;;;;;;;;;6.98;100.00;95018.47;5107008;28;19930;-73
2024/02/24 08:41:27;;;;;;;;;;;;;;;7.18;100.00;95010.22;5106993;28;19936;-73
2024/02/24 08:43:53;;;;;;;;;;;;;;;7.52;100.00;95011.16;5106888;28;20243;-73
2024/02/24 08:46:22;;;;;;;;;;;;;;;7.89;100.00;94989.84;5107093;28;20003;-73
2024/02/24 08:48:48;;;;;;;;;;;;;;;8.16;100.00;94973.56;5107313;28;19936;-73
2024/02/24 08:51:14;;;;;;;;;;;;;;;8.37;100.00;94943.31;5106724;28;19940;-73
2024/02/24 08:53:39;;;;;;;;;;;;;;;8.45;100.00;94958.59;5106691;28;20283;-73
2024/02/24 08:56:06;;;;;;;;;;;;;;;8.53;100.00;94953.75;5106539;28;19963;-73
2024/02/24 08:58:31;;;;;;;;;;;;;;;8.60;100.00;94937.88;5106422;28;19962;-73
2024/02/24 09:00:58;;;;;;;;;;;;;;;8.69;100.00;94954.75;5089324;28;20016;-74
2024/02/24 09:03:24;;;;;;;;;;;;;;;8.80;99.55;94945.19;5106563;28;19933;-67
2024/02/24 09:05:50;;;;;;;;;;;;;;;8.77;99.14;94947.50;5106468;28;19966;-68
2024/02/24 09:08:16;;;;;;;;;;;;;;;8.83;97.06;94942.09;5106956;28;20280;-67
2024/02/24 09:10:42;;;;;;;;;;;;;;;8.90;94.26;94934.88;5106415;28;19938;-67
2024/02/24 09:13:10;;;;;;;;;;;;;;;8.94;95.70;94938.56;5106534;28;20290;-67
2024/02/24 09:15:36;;;;;;;;;;;;;;;8.98;92.75;94915.31;5106468;28;19952;-68
2024/02/24 09:18:02;;;;;;;;;;;;;;;9.05;89.46;94921.16;5106284;28;19941;-74
2024/02/24 09:20:28;;;;;;;;;;;;;;;9.27;92.28;94936.81;5106233;28;19935;-74
2024/02/24 09:22:54;;;;;;;;;;;;;;;9.37;85.04;94904.75;5105174;28;19942;-74
2024/02/24 09:25:21;;;;;;;;;;;;;;;9.54;87.56;94915.09;5106659;28;19942;-73
2024/02/24 09:27:48;;;;;;;;;;;;;;;9.79;93.50;94960.84;5106014;28;19926;-74
2024/02/24 09:30:14;;;;;;;;;;;;;;;10.06;88.04;94932.78;5105968;28;19927;-74
2024/02/24 09:32:40;;;;;;;;;;;;;;;10.19;88.69;94922.91;5106768;28;19927;-73
2024/02/24 09:35:06;;;;;;;;;;;;;;;10.38;87.56;94939.03;5106321;28;20209;-71
2024/02/24 09:37:35;;;;;;;;;;;;;;;10.48;79.83;94886.69;5105873;28;20216;-79
2024/02/24 09:40:03;;;;;;;;;;;;;;;10.43;86.50;94947.69;5105745;28;19940;-67
2024/02/24 09:42:29;;;;;;;;;;;;;;;10.30;83.71;94927.19;5106550;28;19942;-66
2024/02/24 09:44:59;;;;;;;;;;;;;;;10.22;87.85;95066.47;5105673;28;19945;-67
2024/02/24 09:47:25;;;;;;;;;;;;;;;10.13;85.80;95079.25;5105670;28;19934;-67
2024/02/24 09:49:52;;;;;;;;;;;;;;;10.30;88.27;95074.69;5105591;28;19937;-67
2024/02/24 09:52:18;;;;;;;;;;;;;;;10.33;82.05;95076.03;5105595;28;19942;-65
2024/02/24 09:54:44;;;;;;;;;;;;;;;10.12;78.58;95064.56;5105731;28;19965;-72
2024/02/24 09:57:13;;;;;;;;;;;;;;;10.23;84.87;95086.41;5105354;28;19996;-73
2024/02/24 09:59:39;;;;;;;;;;;;;;;10.40;88.14;95094.97;5105316;28;19967;-72
2024/02/24 10:02:05;;;;;;;;;;;;;;;10.39;82.40;95101.22;5105692;28;19960;-73
2024/02/24 10:04:33;;;;;;;;;;;;;;;10.39;84.15;95116.19;5105152;28;20233;-73
2024/02/24 10:06:59;;;;;;;;;;;;;;;10.26;82.09;95136.47;5105387;28;20029;-73
2024/02/24 10:09:25;;;;;;;;;;;;;;;10.01;79.74;95130.97;5087012;28;19943;-73
2024/02/24 10:11:51;;;;;;;;;;;;;;;9.86;79.80;95149.94;5105156;28;19937;-73
2024/02/24 10:14:17;;;;;;;;;;;;;;;9.74;78.75;95148.25;5105578;28;20111;-72
2024/02/24 10:16:46;;;;;;;;;;;;;;;9.79;79.42;95144.09;5105268;28;19999;-73
2024/02/24 10:19:12;;;;;;;;;;;;;;;9.90;80.85;95153.66;5105075;28;19940;-73
2024/02/24 10:21:38;;;;;;;;;;;;;;;9.74;80.82;95156.09;5105099;28;19971;-73
2024/02/24 10:24:04;;;;;;;;;;;;;;;9.72;76.83;95141.66;5105500;28;19934;-72
2024/02/24 10:26:30;;;;;;;;;;;;;;;9.72;78.68;95152.94;5105000;28;19952;-72
2024/02/24 10:28:56;;;;;;;;;;;;;;;9.73;75.73;95144.03;5104860;28;20152;-72
2024/02/24 10:31:26;;;;;;;;;;;;;;;9.72;73.63;95152.13;5105697;28;20196;-66
2024/02/24 10:33:52;;;;;;;;;;;;;;;9.63;74.94;95148.34;5105499;28;19932;-73
2024/02/24 10:36:18;;;;;;;;;;;;;;;9.42;77.43;95152.53;5104674;28;20307;-73
2024/02/24 10:38:49;;;;;;;;;;;;;;;9.13;75.13;95163.94;5104679;28;20010;-75
2024/02/24 10:41:16;;;;;;;;;;;;;;;8.92;78.13;95159.44;5105157;28;19932;-73
2024/02/24 10:43:43;;;;;;;;;;;;;;;8.90;81.14;95170.16;5105236;28;20129;-73
2024/02/24 10:46:09;;;;;;;;;;;;;;;8.89;74.78;95162.53;5105273;28;19940;-73
2024/02/24 10:48:35;;;;;;;;;;;;;;;8.78;81.63;95160.78;5104576;28;20061;-73
2024/02/24 10:51:01;;;;;;;;;;;;;;;8.65;81.12;95178.38;5104519;28;19936;-74
2024/02/24 10:53:28;;;;;;;;;;;;;;;8.58;81.11;95184.78;5104494;28;19933;-80
2024/02/24 10:55:55;;;;;;;;;;;;;;;8.67;82.10;95188.56;5104351;28;20231;-80
2024/02/24 10:58:22;;;;;;;;;;;;;;;8.78;79.84;95189.53;5104268;28;19961;-79
2024/02/24 11:00:50;;;;;;;;;;;;;;;8.92;84.61;95196.84;5104359;28;19935;-81
2024/02/24 11:03:18;;;;;;;;;;;;;;;8.94;73.33;95176.47;5104344;28;20222;-79
2024/02/24 11:05:50;;;;;;;;;;;;;;;9.05;77.09;95192.31;5104319;28;20035;-79
2024/02/24 11:08:35;;;;;;;;;;;;;;;9.31;78.11;95188.25;5104273;28;19968;-73
2024/02/24 11:11:05;;;;;;;;;;;;;;;9.50;78.63;95194.78;5104776;28;19934;-80
2024/02/24 11:13:31;;;;;;;;;;;;;;;9.61;77.66;95193.09;5104227;28;19934;-80
2024/02/24 11:15:57;;;;;;;;;;;;;;;9.63;75.05;95196.25;5104570;28;19951;-80
2024/02/24 11:18:52;;;;;;;;;;;;;;;9.67;76.91;95188.72;5104217;28;19942;-80
2024/02/24 11:21:19;;;;;;;;;;;;;;;9.26;72.47;95199.44;5082794;28;19944;-79
2024/02/24 11:23:47;;;;;;;;;;;;;;;9.10;72.39;95200.25;5104127;28;20102;-80
2024/02/24 11:26:16;;;;;;;;;;;;;;;9.03;71.54;95192.56;5104303;28;20215;-67
2024/02/24 11:28:44;;;;;;;;;;;;;;;9.11;74.86;95197.41;5104093;28;19938;-72
2024/02/24 11:31:17;;;;;;;;;;;;;;;9.22;74.05;95197.50;5104062;28;19930;-76
2024/02/24 11:33:43;;;;;;;;;;;;;;;9.25;76.07;95192.59;5085880;28;19946;-75
2024/02/24 11:36:10;;;;;;;;;;;;;;;9.28;73.87;95200.00;5103891;28;19950;-75
2024/02/24 11:38:36;;;;;;;;;;;;;;;9.51;79.17;95204.22;5103979;28;19945;-75
2024/02/24 11:41:05;;;;;;;;;;;;;;;9.62;67.71;95189.44;5103918;28;19939;-75
2024/02/24 11:43:32;;;;;;;;;;;;;;;9.82;73.17;95190.72;5103870;28;20225;-75
2024/02/24 11:45:57;;;;;;;;;;;;;;;10.07;69.29;95177.13;5105241;28;19938;-72
2024/02/24 11:48:23;;;;;;;;;;;;;;;10.19;65.51;95175.19;5108018;28;19939;-72
2024/02/24 11:50:50;;;;;;;;;;;;;;;10.19;63.78;95180.41;5107927;28;19933;-73
2024/02/24 11:53:16;;;;;;;;;;;;;;;10.15;70.11;95192.44;5108150;28;19938;-72
2024/02/24 11:55:42;;;;;;;;;;;;;;;10.34;66.38;95190.28;5107793;28;19952;-72
2024/02/24 11:58:09;;;;;;;;;;;;;;;10.49;65.15;95185.19;5107890;28;19967;-73
2024/02/24 12:00:35;;;;;;;;;;;;;;;10.49;66.19;95194.88;5108196;28;19938;-72
2024/02/24 12:03:01;;;;;;;;;;;;;;;10.15;65.75;95187.19;5107749;28;19960;-73
2024/02/24 12:05:27;;;;;;;;;;;;;;;10.04;63.41;95180.25;5089663;28;19963;-72
2024/02/24 12:07:54;;;;;;;;;;;;;;;10.06;65.84;95193.91;5107554;28;20242;-73
2024/02/24 12:10:21;;;;;;;;;;;;;;;9.90;62.31;95185.84;5107642;28;19935;-72
2024/02/24 12:12:47;;;;;;;;;;;;;;;9.96;65.61;95190.13;5108363;28;19931;-73
2024/02/24 12:15:14;;;;;;;;;;;;;;;9.84;61.83;95181.59;5107360;28;19951;-73
2024/02/24 12:17:40;;;;;;;;;;;;;;;9.65;63.68;95188.94;5107985;28;19935;-73
2024/02/24 12:20:10;;;;;;;;;;;;;;;9.49;66.25;95198.44;5108220;28;19930;-73
2024/02/24 12:22:36;;;;;;;;;;;;;;;9.40;65.48;95204.31;5107352;28;19937;-67
2024/02/24 12:25:12;;;;;;;;;;;;;;;9.29;66.90;95203.38;5107274;28;19983;-73
2024/02/24 12:27:38;;;;;;;;;;;;;;;9.03;65.14;95202.22;5107268;28;19942;-73
2024/02/24 12:30:04;;;;;;;;;;;;;;;8.76;65.46;95207.25;5107149;28;20159;-72
2024/02/24 12:32:30;;;;;;;;;;;;;;;8.62;67.64;95206.78;5107674;28;19940;-73
2024/02/24 12:35:02;;;;;;;;;;;;;;;8.59;70.27;95215.91;5107500;28;19958;-73
2024/02/24 12:37:32;;;;;;;;;;;;;;;8.46;67.10;95217.00;5107054;28;20134;-73
2024/02/24 12:39:58;;;;;;;;;;;;;;;8.45;68.42;95225.06;5106932;28;19928;-67
2024/02/24 12:42:25;;;;;;;;;;;;;;;8.38;66.81;95216.50;5107702;28;20143;-67